Nearby METAR Reports

 

KC09 - Morris-Washburn, Illinois, USA
Distance from station: NW 9mi, 14km
Updated: Fri, 22-Sep-2017 9:55am CDT
Clear
Clear
 Wind from S
Wind: S 3 mph , 6 km/h
Temperature: 81°F , 27°C
Heat Index: 85°F , 29°C
Dew Point: 70°F , 21°C
Humidity: 70%
Barometer: 30.07 inHg , 1018.3 hPa
Clouds: Clear
Visibility: 10 miles , 16 km
2017/09/22 14:55 KC09 221455Z AUTO 19003KT 10SM CLR 27/21 A3007 RMK AO2 T02740208
KJOT - Joliet, Illinois, USA
Distance from station: NNE 13mi, 22km
Updated: Fri, 22-Sep-2017 9:55am CDT
Clear
Clear
 Wind from SSW
Wind: SSW 3 mph , 6 km/h
Temperature: 82°F , 28°C
Heat Index: 86°F , 30°C
Dew Point: 72°F , 22°C
Humidity: 70%
Barometer: 30.09 inHg , 1019 hPa
Clouds: Clear
Visibility: 10 miles , 16 km
2017/09/22 14:55 KJOT 221455Z AUTO 21003KT 10SM CLR 28/22 A3009 RMK AO2 T02840216
 
KLOT - Romeoville/Chi, Illinois, USA
Distance from station: NNE 21mi, 33km
Updated: Fri, 22-Sep-2017 9:55am CDT
Clear
Clear
 Wind from WSW
Wind: WSW 6 mph , 9 km/h
Temperature: 82°F , 28°C
Heat Index: 86°F , 30°C
Dew Point: 70°F , 21°C
Humidity: 66%
Barometer: 30.09 inHg , 1019 hPa
Clouds: Clear
Visibility: 10 miles , 16 km
2017/09/22 14:55 KLOT 221455Z AUTO 24005KT 10SM CLR 28/21 A3009 RMK AO2 T02810206
KIKK - Kankakee, Illinois, USA
Distance from station: SE 30mi, 48km
Updated: Fri, 22-Sep-2017 9:55am CDT
Clear
Clear
 Wind from SW
Wind: SW 5 mph , 7 km/h
Temperature: 82°F , 28°C
Heat Index: 86°F , 30°C
Dew Point: 70°F , 21°C
Humidity: 66%
Barometer: 30.10 inHg , 1019.3 hPa
Clouds: Clear
Visibility: 10 miles , 16 km
2017/09/22 14:55 KIKK 221455Z AUTO 23004KT 10SM CLR 28/21 A3010 RMK AO2 T02770206
 
KARR - Chicago/Aurora, Illinois, USA
Distance from station: NNW 31mi, 50km
Updated: Fri, 22-Sep-2017 9:52am CDT
Clear
Clear
 Wind from SW
Wind: SW 7 mph , 11 km/h
Temperature: 81°F , 27°C
Heat Index: 85°F , 29°C
Dew Point: 72°F , 22°C
Humidity: 74%
Barometer: 30.09 inHg , 1019 hPa
Clouds: Clear
Visibility: 8 miles , 13 km
2017/09/22 14:52 KARR 221452Z 22006KT 8SM CLR 27/22 A3009 RMK AO2 SLP182 T02720217 53004
KPNT - Pontiac, Illinois, USA
Distance from station: SSW 34mi, 54km
Updated: Fri, 22-Sep-2017 9:55am CDT
Clear
Clear
 Wind from SW
Wind: SW 5 mph , 7 km/h
Temperature: 84°F , 29°C
Heat Index: 90°F , 32°C
Dew Point: 73°F , 23°C
Humidity: 70%
Barometer: 30.10 inHg , 1019.3 hPa
Clouds: Clear
Visibility: 10 miles , 16 km
2017/09/22 14:55 KPNT 221455Z AUTO 22004KT 10SM CLR 29/23 A3010 RMK AO2 T02880230
 
KDPA - Chicago/Dupage, Illinois, USA
Distance from station: N 40mi, 64km
Updated: Fri, 22-Sep-2017 9:52am CDT
Clear
Clear
 Wind from SSW
Wind: SSW 8 mph , 13 km/h
Temperature: 84°F , 29°C
Heat Index: 89°F , 32°C
Dew Point: 72°F , 22°C
Humidity: 66%
Barometer: 30.08 inHg , 1018.6 hPa
Clouds: Clear
Visibility: 7 miles , 11 km
2017/09/22 14:52 KDPA 221452Z 21007KT 7SM CLR 29/22 A3008 RMK AO2 SLP179 T02890217 51005
KIGQ - Chicago/Lansing, Illinois, USA
Distance from station: ENE 42mi, 67km
Updated: Fri, 22-Sep-2017 9:55am CDT
Clear
Clear
 Wind from SSW
Wind: SSW 5 mph , 7 km/h
Temperature: 82°F , 28°C
Heat Index: 86°F , 30°C
Dew Point: 72°F , 22°C
Humidity: 70%
Barometer: 30.10 inHg , 1019.3 hPa
Clouds: Clear
Visibility: 10 miles , 16 km
2017/09/22 14:55 KIGQ 221455Z AUTO 20004KT 10SM CLR 28/22 A3010 RMK AO2 T02810218
 
KMDW - Chicago, Illinois, USA
Distance from station: NE 42mi, 67km
Updated: Fri, 22-Sep-2017 9:53am CDT
Few Clouds
Few Clouds
 Wind from SW
Wind: SW 8 mph , 13 km/h
Temperature: 84°F , 29°C
Heat Index: 87°F , 31°C
Dew Point: 68°F , 20°C
Humidity: 58%
Barometer: 30.08 inHg , 1018.6 hPa
Clouds: Few Clouds
Visibility: 10 miles , 16 km
Cloud details: Few Clouds 25000 ft
2017/09/22 14:53 KMDW 221453Z 22007KT 10SM FEW250 29/20 A3008 RMK AO2 SLP171 T02940200 50003
KVYS - Peru, Illinois, USA
Distance from station: W 44mi, 71km
Updated: Fri, 22-Sep-2017 9:55am CDT
Clear
Clear
 Wind from SSW
Wind: SSW 9 mph , 15 km/h
Temperature: 82°F , 28°C
Heat Index: 85°F , 29°C
Dew Point: 68°F , 20°C
Humidity: 62%
Barometer: 30.08 inHg , 1018.6 hPa
Clouds: Clear
Visibility: 10 miles , 16 km
2017/09/22 14:55 KVYS 221455Z AUTO 21008KT 10SM CLR 28/20 A3008 RMK AO2 T02750201
 
KDKB - De Kalb, Illinois, USA
Distance from station: NNW 46mi, 74km
Updated: Fri, 22-Sep-2017 9:55am CDT
Clear
Clear
 Wind from SSW
Wind: SSW 8 mph , 13 km/h
Temperature: 82°F , 28°C
Heat Index: 86°F , 30°C
Dew Point: 70°F , 21°C
Humidity: 66%
Barometer: 30.09 inHg , 1019 hPa
Clouds: Clear
Visibility: 10 miles , 16 km
2017/09/22 14:55 KDKB 221455Z AUTO 20007KT 10SM CLR 28/21 A3009 RMK AO2 T02760214
KORD - Chicago O'hare, Illinois, USA
Distance from station: NNE 48mi, 78km
Updated: Fri, 22-Sep-2017 9:51am CDT
Few Clouds
Few Clouds
 Wind from SW
Wind: SW 8 mph , 13 km/h
Temperature: 84°F , 29°C
Heat Index: 86°F , 30°C
Dew Point: 66°F , 19°C
Humidity: 55%
Barometer: 30.07 inHg , 1018.3 hPa
Clouds: Few Clouds
Visibility: 10 miles , 16 km
Cloud details: Few Clouds 25000 ft
2017/09/22 14:51 KORD 221451Z 22007KT 10SM FEW250 29/19 A3007 RMK AO2 SLP177 T02940194 51004
 
KGYY - Gary Regional, Indiana, USA
Distance from station: ENE 49mi, 80km
Updated: Fri, 22-Sep-2017 9:45am CDT
Few Clouds
Few Clouds
 Wind from varies
Wind: varies 5 mph , 7 km/h
Temperature: 84°F , 29°C
Heat Index: 86°F , 30°C
Dew Point: 66°F , 19°C
Humidity: 55%
Barometer: 30.10 inHg , 1019.3 hPa
Clouds: Few Clouds
Visibility: 10 miles , 16 km
Cloud details: Few Clouds 25000 ft
2017/09/22 14:45 KGYY 221445Z VRB04KT 10SM FEW250 29/19 A3010